This is the latest recevied weather packets stored in our database for station/object KK7AZD-13. If no packets are shown the sender has not sent any weather packets the latest 10 day(s).
| Time | Temp. | Humidity | Pressure | Rain* | Wind** | Luminosity | Snow |
|---|---|---|---|---|---|---|---|
| 1777243585 | 9.44° C | 55% | 1009.4 hPa | 0 mm | - | 317 W/m² | - |
| 1777242680 | 8.89° C | 50% | 1009 hPa | 0 mm | - | 427 W/m² | - |
| 1777241776 | 9.44° C | 50% | 1009 hPa | 0 mm | - | 191 W/m² | - |
| 1777240874 | 9.44° C | 48% | 1008.9 hPa | 0 mm | - | 232 W/m² | - |
| 1777239972 | 9.44° C | 45% | 1008.8 hPa | 0 mm | - | 269 W/m² | - |
| 1777239069 | 10° C | 46% | 1008.8 hPa | 0 mm | - | 310 W/m² | - |
| 1777238165 | 10° C | 43% | 1008.7 hPa | 0 mm | - | 360 W/m² | - |
| 1777237262 | 10.56° C | 42% | 1008.7 hPa | 0 mm | - | 898 W/m² | - |
| 1777236362 | 10.56° C | 41% | 1008.6 hPa | 0 mm | - | 911 W/m² | - |
| 1777235458 | 11.11° C | 41% | 1008.6 hPa | 0 mm | - | 606 W/m² | - |
| 1777234557 | 10° C | 42% | 1008.4 hPa | 0 mm | - | 462 W/m² | - |
| 1777233657 | 9.44° C | 43% | 1008.6 hPa | 0 mm | - | 419 W/m² | - |
| 1777232755 | 9.44° C | 44% | 1008.6 hPa | 0 mm | - | 387 W/m² | - |
| 1777231853 | 10° C | 42% | 1008.8 hPa | 0 mm | - | 474 W/m² | - |
| 1777230947 | 10.56° C | 40% | 1008.5 hPa | 0 mm | - | 684 W/m² | - |
| 1777230048 | 8.89° C | 43% | 1008.6 hPa | 0 mm | - | 887 W/m² | - |
| 1777229144 | 9.44° C | 42% | 1008.3 hPa | 0 mm | - | 434 W/m² | - |
| 1777228239 | 9.44° C | 41% | 1008.4 hPa | 0 mm | - | 457 W/m² | - |
| 1777227336 | 9.44° C | 38% | 1008.3 hPa | 0 mm | - | 531 W/m² | - |
| 1777226434 | 10° C | 37% | 1008 hPa | 0 mm | - | 1091 W/m² | - |
| 1777225534 | 7.78° C | 47% | 1008.3 hPa | 0 mm | - | 525 W/m² | - |
| 1777224631 | 7.78° C | 49% | 1008.3 hPa | 0 mm | - | 211 W/m² | - |
| 1777223731 | 8.89° C | 49% | 1007.8 hPa | 0 mm | - | 397 W/m² | - |
| 1777222826 | 7.78° C | 47% | 1007.9 hPa | 0 mm | - | 703 W/m² | - |
| 1777221926 | 7.78° C | 48% | 1008 hPa | 0 mm | - | 695 W/m² | - |
* Rain latest hour (hover to see other rain measurements)
** Current wind speed in m/s (hover to see current wind gust speed)